This demonstration page uses our WeatherBlox Daily Observations layout. Learn more.

39.92423, -83.80882

Hourly Observations for December 7, 2018

Temp ( °F °C ) Dew Point ( °F °C ) Humidity (%) Winds ( mph kmh ) Pressure ( in mb ) Visibility ( mi km ) Precip ( " mm )
12:56 am 00:56 Clear 23 -5 21 -6.1 92 92 NNW 6 9 30.41 1030 10 16.0934 0 0
1:56 am 01:56 Clear 23 -5 20 -6.7 88 88 NNW 3 6 30.42 1030 10 16.0934 0 0
2:56 am 02:56 Clear 22 -5.6 20 -6.7 92 92 Calm 30.45 1031 10 16.0934 0 0
3:56 am 03:56 Clear 21 -6.1 19 -7.2 92 92 NNW 6 9 30.45 1031 10 16.0934 0 0
4:56 am 04:56 Clear 19 -7.2 17 -8.3 92 92 NW 5 7 30.46 1032 10 16.0934 0 0
5:56 am 05:56 Clear 18 -7.8 17 -8.3 96 96 WSW 3 6 30.48 1032 10 16.0934 0 0
6:56 am 06:56 Clear 17 -8.3 17 -8.3 100 100 Calm 30.5 1033 10 16.0934 0 0
7:56 am 07:56 Sunny with Mist and Fog 17 -8.3 16 -8.9 95 95 W 3 6 30.52 1034 5 8.0467 0 0
8:56 am 08:56 Sunny 22 -5.6 20 -6.7 92 92 W 5 7 30.54 1034 8 12.87472 0 0
9:56 am 09:56 Sunny 25 -3.9 21 -6.1 85 85 NW 5 7 30.55 1035 10 16.0934 0 0
10:56 am 10:56 Sunny 27 -2.8 20 -6.7 75 75 Calm 30.56 1035 10 16.0934 0 0
11:56 am 11:56 Sunny 29 -1.7 22 -5.6 75 75 Calm 30.53 1034 10 16.0934 0 0
12:56 pm 12:56 Sunny 29 -1.7 22 -5.6 75 75 W 8 13 30.51 1033 10 16.0934 0 0
1:56 pm 13:56 Mostly Sunny 31 -0.6 22 -5.6 69 69 W 6 9 30.5 1033 10 16.0934 0 0
2:56 pm 14:56 Mostly Sunny 31 -0.6 22 -5.6 69 69 W 9 15 30.49 1032 10 16.0934 0 0
3:56 pm 15:56 Sunny 32 0 22 -5.6 66 66 WNW 6 9 30.49 1032 10 16.0934 0 0
4:56 pm 16:56 Sunny 29 -1.7 22 -5.6 75 75 WNW 5 7 30.48 1032 10 16.0934 0 0
5:56 pm 17:56 Clear 27 -2.8 22 -5.6 81 81 WNW 3 6 30.49 1032 10 16.0934 0 0
6:56 pm 18:56 Clear 26 -3.3 20 -6.7 78 78 SW 3 6 30.49 1032 10 16.0934 0 0
7:56 pm 19:56 Clear 24 -4.4 22 -5.6 91 91 WSW 3 6 30.5 1033 9 14.48406 0 0
8:56 pm 20:56 Clear 23 -5 21 -6.1 92 92 W 5 7 30.51 1033 10 16.0934 0 0
9:56 pm 21:56 Clear 22 -5.6 20 -6.7 92 92 WSW 3 6 30.5 1033 10 16.0934 0 0
10:56 pm 22:56 Clear 22 -5.6 20 -6.7 92 92 W 5 7 30.5 1033 10 16.0934 0 0
11:56 pm 23:56 Clear 22 -5.6 19 -7.2 89 89 WNW 8 13 30.51 1033 10 16.0934 0 0

Powered by AerisWeather